Time;durP1;ratioP1;P1;durP2;ratioP2;P2;SDS_P1;SDS_P2;PMS_P1;PMS_P2;Temp;Humidity;BMP_temperature;BMP_pressure;BME280_temperature;BME280_humidity;BME280_pressure;Samples;Min_cycle;Max_cycle;Signal;HPM_P1;HPM_P2
2022/12/22 12:57:27;;;;;;;97.70;47.53;;;;;;;4.59;100.00;99833.91;1721936;83;22676;-65
2022/12/22 12:59:57;;;;;;;101.65;46.05;;;;;;;4.77;100.00;99836.19;1726762;83;21073;-66
2022/12/22 13:02:33;;;;;;;112.03;51.23;;;;;;;4.96;100.00;99839.77;1729480;82;21272;-66
2022/12/22 13:05:31;;;;;;;99.15;46.80;;;;;;;5.10;100.00;99832.98;1726488;83;21060;-66
2022/12/22 13:08:17;;;;;;;95.32;44.38;;;;;;;5.17;100.00;99831.52;1577200;91;20968;-64
2022/12/22 13:10:52;;;;;;;103.72;46.60;;;;;;;5.44;100.00;99822.27;1577249;91;21167;-66
2022/12/22 13:13:32;;;;;;;97.60;49.85;;;;;;;5.26;100.00;99823.50;1577126;91;21193;-66
2022/12/22 13:16:04;;;;;;;98.70;49.30;;;;;;;5.41;100.00;99816.27;1577443;91;21124;-66
2022/12/22 13:18:42;;;;;;;106.15;49.20;;;;;;;5.49;100.00;99809.11;1577148;90;21007;-66
2022/12/22 13:21:25;;;;;;;99.90;49.25;;;;;;;5.51;100.00;99810.39;1552288;91;21067;-65
2022/12/22 13:24:01;;;;;;;92.57;48.35;;;;;;;5.68;100.00;99813.06;1577428;90;21152;-66
2022/12/22 13:26:34;;;;;;;91.75;45.23;;;;;;;5.73;100.00;99812.96;1577357;90;21611;-67
2022/12/22 13:29:16;;;;;;;95.92;47.17;;;;;;;5.64;100.00;99817.94;1594696;89;21171;-66
2022/12/22 13:32:04;;;;;;;98.78;49.45;;;;;;;5.79;100.00;99819.78;1568816;91;21087;-66
2022/12/22 13:34:45;;;;;;;99.87;47.05;;;;;;;5.82;100.00;99807.95;1576698;91;21067;-66
2022/12/22 13:37:21;;;;;;;84.65;42.15;;;;;;;5.82;100.00;99807.95;1577536;91;21262;-66
2022/12/22 13:40:16;;;;;;;88.52;44.20;;;;;;;5.83;100.00;99814.45;1577770;90;21111;-67
2022/12/22 13:42:50;;;;;;;91.67;45.70;;;;;;;5.88;100.00;99806.06;1577275;91;21169;-66
2022/12/22 13:45:38;;;;;;;97.90;46.63;;;;;;;5.60;100.00;99808.44;1577311;90;21600;-67
2022/12/22 13:48:18;;;;;;;93.82;45.33;;;;;;;5.99;100.00;99807.16;1593164;89;21079;-66
2022/12/22 13:50:49;;;;;;;87.78;45.05;;;;;;;6.09;100.00;99811.26;1602765;89;21526;-65
2022/12/22 13:53:35;;;;;;;100.82;45.30;;;;;;;6.19;100.00;99817.58;1602649;89;21111;-66
2022/12/22 13:56:01;;;;;;;85.70;44.60;;;;;;;5.88;100.00;99815.20;1602370;89;21279;-66
2022/12/22 13:58:35;;;;;;;94.77;45.00;;;;;;;6.07;100.00;99813.08;1601800;89;21150;-65
2022/12/22 14:01:13;;;;;;;97.88;49.40;;;;;;;6.07;100.00;99813.08;1602020;89;21107;-66
2022/12/22 14:03:55;;;;;;;94.83;47.15;;;;;;;6.14;100.00;99829.91;1601919;89;21107;-65
2022/12/22 14:06:39;;;;;;;104.45;48.55;;;;;;;6.14;100.00;99829.91;1594546;89;21074;-66
2022/12/22 14:09:24;;;;;;;103.12;49.35;;;;;;;6.06;100.00;99824.41;1569398;89;21146;-65
2022/12/22 14:12:01;;;;;;;97.42;47.10;;;;;;;5.80;100.00;99821.52;1574300;89;21092;-66
2022/12/22 14:14:38;;;;;;;92.30;45.15;;;;;;;5.75;100.00;99831.20;1574051;91;21077;-66
2022/12/22 14:17:25;;;;;;;98.05;46.92;;;;;;;5.89;100.00;99827.84;1574284;91;21125;-65
2022/12/22 14:19:55;;;;;;;99.77;44.20;;;;;;;6.18;100.00;99823.26;1574318;89;21077;-67
2022/12/22 14:22:36;;;;;;;97.50;47.35;;;;;;;6.06;100.00;99824.87;1574363;91;21959;-66
2022/12/22 14:25:15;;;;;;;96.57;45.92;;;;;;;6.09;100.00;99830.87;1574456;89;21123;-66
2022/12/22 14:27:54;;;;;;;83.20;42.50;;;;;;;6.17;100.00;99829.86;1576868;90;21111;-66
2022/12/22 14:30:24;;;;;;;91.60;45.85;;;;;;;6.36;100.00;99826.34;1568656;91;21237;-66
2022/12/22 14:32:53;;;;;;;95.90;44.98;;;;;;;6.45;100.00;99820.88;1568422;91;21607;-66
2022/12/22 14:35:28;;;;;;;88.92;42.23;;;;;;;6.49;100.00;99821.22;1568728;91;21147;-66
2022/12/22 14:38:22;;;;;;;98.40;46.92;;;;;;;6.49;100.00;99820.77;1568466;91;21115;-67
2022/12/22 14:40:49;;;;;;;86.82;44.85;;;;;;;6.26;100.00;99825.71;1568652;91;21053;-67
2022/12/22 14:43:25;;;;;;;94.28;45.73;;;;;;;6.53;100.00;99835.06;1568453;91;21069;-66
2022/12/22 14:46:05;;;;;;;93.22;44.67;;;;;;;6.33;100.00;99832.51;1568646;91;21085;-66
2022/12/22 14:48:39;;;;;;;92.72;45.12;;;;;;;6.48;100.00;99830.80;1568594;91;21283;-66
2022/12/22 14:51:05;;;;;;;86.15;42.00;;;;;;;6.53;100.00;99824.59;1568708;91;21045;-66
2022/12/22 14:53:49;;;;;;;85.62;43.98;;;;;;;6.72;100.00;99825.86;1568647;91;21058;-66
2022/12/22 14:56:17;;;;;;;85.40;41.83;;;;;;;6.59;100.00;99825.77;1568857;91;21053;-68
2022/12/22 14:58:45;;;;;;;80.20;42.23;;;;;;;6.31;100.00;99832.99;1568622;91;21125;-67
2022/12/22 15:01:21;;;;;;;91.37;46.37;;;;;;;6.43;100.00;99830.06;1568804;91;21113;-67
2022/12/22 15:04:17;;;;;;;77.30;37.88;;;;;;;6.73;100.00;99814.48;1568462;91;21065;-67
2022/12/22 15:06:46;;;;;;;97.67;45.08;;;;;;;6.49;100.00;99812.91;1578332;88;21155;-68
2022/12/22 15:09:19;;;;;;;100.55;46.73;;;;;;;6.78;100.00;99809.98;1593763;90;21079;-67
2022/12/22 15:12:06;;;;;;;99.80;45.12;;;;;;;6.27;100.00;99816.95;1593985;90;21153;-68
2022/12/22 15:14:34;;;;;;;92.72;45.58;;;;;;;6.80;100.00;99812.56;1569072;90;21065;-67
2022/12/22 15:17:01;;;;;;;104.03;49.80;;;;;;;6.75;100.00;99814.45;1569032;90;21130;-67
2022/12/22 15:19:32;;;;;;;95.62;45.95;;;;;;;6.66;100.00;99825.55;1593816;90;21057;-67
2022/12/22 15:21:58;;;;;;;105.45;54.00;;;;;;;6.66;100.00;99825.55;1594125;90;21090;-66
2022/12/22 15:24:25;;;;;;;105.75;50.98;;;;;;;6.78;100.00;99828.75;1593841;90;21078;-67
2022/12/22 15:26:51;;;;;;;102.17;47.62;;;;;;;6.89;100.00;99825.41;1592821;90;21250;-66
2022/12/22 15:29:18;;;;;;;117.75;52.55;;;;;;;6.98;100.00;99833.02;1601819;89;21761;-66
2022/12/22 15:31:44;;;;;;;103.10;47.75;;;;;;;6.77;100.00;99834.45;1579846;90;21112;-66
2022/12/22 15:34:24;;;;;;;112.55;54.38;;;;;;;6.77;100.00;99834.45;1601858;89;21090;-67
2022/12/22 15:36:51;;;;;;;118.20;55.45;;;;;;;6.96;100.00;99831.34;1579700;90;21127;-66
2022/12/22 15:39:19;;;;;;;120.65;55.80;;;;;;;6.94;100.00;99823.52;1601922;87;21143;-65
2022/12/22 15:41:46;;;;;;;113.30;54.23;;;;;;;6.82;100.00;99823.40;1579654;90;21050;-66
2022/12/22 15:44:13;;;;;;;112.22;50.85;;;;;;;6.94;100.00;99823.06;1601888;89;21099;-66
2022/12/22 15:46:43;;;;;;;99.83;51.68;;;;;;;6.94;100.00;99823.06;1579681;90;21545;-67
2022/12/22 15:49:22;;;;;;;108.30;50.53;;;;;;;7.05;100.00;99808.84;1602332;89;21155;-66
2022/12/22 15:51:55;;;;;;;103.62;51.68;;;;;;;7.31;100.00;99804.16;1579682;90;21907;-66
2022/12/22 15:54:22;;;;;;;92.90;45.83;;;;;;;7.39;100.00;99804.81;1601356;89;21103;-66
2022/12/22 15:56:49;;;;;;;107.22;52.20;;;;;;;7.51;88.76;99811.45;1579733;90;21149;-66
2022/12/22 15:59:18;;;;;;;94.65;47.43;;;;;;;7.51;88.76;99811.45;1601802;88;21111;-67
2022/12/22 16:01:45;;;;;;;104.78;49.13;;;;;;;7.48;87.34;99805.84;1579140;90;21114;-67
2022/12/22 16:04:16;;;;;;;91.40;44.30;;;;;;;7.79;86.09;99794.43;1601787;89;21757;-66
2022/12/22 16:06:42;;;;;;;101.92;49.77;;;;;;;7.79;86.09;99794.43;1564291;90;21092;-67
2022/12/22 16:09:20;;;;;;;140.20;66.42;;;;;;;7.43;86.87;99798.58;1602692;89;21131;-66
2022/12/22 16:11:48;;;;;;;119.80;55.88;;;;;;;7.45;86.01;99794.59;1603028;88;21558;-65
2022/12/22 16:14:14;;;;;;;112.62;53.92;;;;;;;7.37;86.80;99787.42;1603314;89;21144;-66
2022/12/22 16:16:41;;;;;;;112.52;51.53;;;;;;;7.53;85.60;99788.22;1603331;89;21806;-66
2022/12/22 16:19:12;;;;;;;109.52;53.08;;;;;;;7.48;85.51;99796.68;1603078;89;21127;-65
2022/12/22 16:21:39;;;;;;;121.50;57.95;;;;;;;7.53;85.15;99800.47;1603232;89;21554;-67
2022/12/22 16:24:09;;;;;;;111.97;55.30;;;;;;;7.43;85.39;99805.56;1603127;89;21071;-65
2022/12/22 16:26:35;;;;;;;112.50;53.48;;;;;;;7.43;85.39;99805.56;1603329;89;21039;-68
2022/12/22 16:29:02;;;;;;;113.15;53.55;;;;;;;7.14;86.18;99790.25;1600595;88;21111;-66
2022/12/22 16:31:29;;;;;;;92.02;45.75;;;;;;;7.14;86.18;99790.25;1591336;90;21049;-66
2022/12/22 16:33:55;;;;;;;110.48;51.65;;;;;;;7.14;86.53;99797.64;1617923;88;21014;-67
2022/12/22 16:36:22;;;;;;;107.75;49.63;;;;;;;7.01;86.17;99807.20;1618201;88;21051;-67
2022/12/22 16:38:49;;;;;;;105.87;49.45;;;;;;;7.04;86.46;99801.86;1618298;87;21057;-66
2022/12/22 16:41:23;;;;;;;108.83;53.45;;;;;;;7.21;85.48;99805.34;1618115;88;21552;-66
2022/12/22 16:43:52;;;;;;;107.07;48.92;;;;;;;7.21;85.48;99805.34;1617500;88;21056;-67
2022/12/22 16:46:20;;;;;;;112.25;52.25;;;;;;;7.17;86.09;99799.31;1618245;87;21175;-66
2022/12/22 16:48:53;;;;;;;110.15;52.85;;;;;;;7.14;85.33;99812.51;1618120;88;21540;-67
2022/12/22 16:51:32;;;;;;;109.32;49.48;;;;;;;7.39;84.44;99800.03;1618379;88;21132;-67
2022/12/22 16:54:00;;;;;;;112.17;51.70;;;;;;;7.14;85.59;99812.51;1618028;88;21293;-66
2022/12/22 16:56:29;;;;;;;106.10;47.58;;;;;;;7.17;85.02;99812.41;1618183;88;21037;-65
2022/12/22 16:58:55;;;;;;;94.17;43.30;;;;;;;7.30;84.13;99816.41;1618059;88;21628;-66
2022/12/22 17:01:39;;;;;;;110.10;49.80;;;;;;;7.17;84.43;99816.34;1618066;88;21057;-66
2022/12/22 17:04:10;;;;;;;91.80;42.95;;;;;;;6.99;84.92;99816.84;1618060;88;21083;-67
2022/12/22 17:06:37;;;;;;;101.60;47.27;;;;;;;7.09;85.00;99817.02;1618142;88;21126;-66
2022/12/22 17:09:05;;;;;;;110.60;51.58;;;;;;;7.21;84.50;99821.91;1598076;88;21628;-66
2022/12/22 17:11:33;;;;;;;103.22;49.18;;;;;;;7.07;86.03;99824.05;1590340;90;21077;-66
2022/12/22 17:14:14;;;;;;;117.00;53.68;;;;;;;7.07;86.03;99824.05;1590473;90;21146;-67
2022/12/22 17:16:41;;;;;;;108.45;51.50;;;;;;;7.00;85.72;99827.75;1590266;90;21627;-66
2022/12/22 17:19:10;;;;;;;108.52;49.40;;;;;;;6.96;86.84;99828.72;1590228;90;21256;-66
2022/12/22 17:21:37;;;;;;;111.55;51.55;;;;;;;6.75;88.46;99831.01;1590276;90;21125;-66
2022/12/22 17:24:03;;;;;;;101.33;46.68;;;;;;;6.75;88.46;99831.01;1590247;90;21161;-66
2022/12/22 17:26:32;;;;;;;95.55;46.85;;;;;;;6.71;89.29;99831.98;1589983;90;22353;-66
2022/12/22 17:28:59;;;;;;;104.50;49.83;;;;;;;6.71;89.29;99831.98;1584694;90;21064;-67
2022/12/22 17:31:26;;;;;;;108.47;49.80;;;;;;;6.67;90.70;99819.86;1585127;90;21147;-67
2022/12/22 17:33:52;;;;;;;111.22;52.38;;;;;;;6.67;90.70;99819.86;1584764;90;21596;-66
2022/12/22 17:36:27;;;;;;;97.40;47.20;;;;;;;6.92;89.49;99817.45;1585132;90;21584;-67
2022/12/22 17:38:54;;;;;;;95.75;46.00;;;;;;;6.82;90.47;99809.00;1584348;90;21077;-67
2022/12/22 17:41:23;;;;;;;102.38;52.08;;;;;;;6.82;90.47;99809.00;1584991;90;21100;-67
2022/12/22 17:43:51;;;;;;;98.23;45.87;;;;;;;6.87;90.78;99809.73;1585021;90;21200;-68
2022/12/22 17:46:19;;;;;;;107.37;49.95;;;;;;;7.10;90.57;99805.63;1585036;90;21049;-68
2022/12/22 17:48:46;;;;;;;103.67;49.83;;;;;;;7.16;89.83;99812.02;1584898;90;21081;-68
2022/12/22 17:51:24;;;;;;;97.27;47.13;;;;;;;6.65;91.78;99816.45;1584992;90;21057;-67
2022/12/22 17:53:51;;;;;;;106.50;51.05;;;;;;;6.67;92.86;99808.09;1565612;90;21273;-66
2022/12/22 17:56:39;;;;;;;111.05;49.73;;;;;;;6.55;92.63;99811.03;1585169;90;21150;-67
2022/12/22 17:59:12;;;;;;;106.37;48.92;;;;;;;6.42;95.01;99806.55;1548995;92;21090;-67
2022/12/22 18:01:39;;;;;;;101.05;48.42;;;;;;;6.42;95.01;99806.55;1549107;92;21106;-67
2022/12/22 18:04:08;;;;;;;89.13;43.02;;;;;;;6.35;95.50;99807.18;1549087;92;21055;-67
2022/12/22 18:06:37;;;;;;;101.20;48.60;;;;;;;6.72;94.49;99808.85;1548958;92;21087;-67
2022/12/22 18:09:03;;;;;;;106.75;51.30;;;;;;;6.84;93.84;99811.59;1548958;92;21334;-67
2022/12/22 18:11:30;;;;;;;104.05;48.87;;;;;;;6.65;95.02;99805.99;1549095;92;21693;-65
2022/12/22 18:13:57;;;;;;;106.50;49.65;;;;;;;6.61;95.22;99807.81;1548769;92;21164;-65
2022/12/22 23:53:41;;;;;;;146.43;59.00;;;;;;;0.43;100.00;99654.52;1808359;77;22631;-90
2022/12/22 23:56:09;;;;;;;141.65;57.23;;;;;;;2.52;100.00;99645.13;1778283;80;21033;-91
